Time;durP1;ratioP1;P1;durP2;ratioP2;P2;SDS_P1;SDS_P2;PMS_P1;PMS_P2;Temp;Humidity;BMP_temperature;BMP_pressure;BME280_temperature;BME280_humidity;BME280_pressure;Samples;Min_cycle;Max_cycle;Signal;HPM_P1;HPM_P2
2023/06/28 00:01:07;;;;;;;;;2.00;2.00;;;;;21.62;46.80;101571.28;4997612;28;45528;-68
2023/06/28 00:03:32;;;;;;;;;4.00;3.67;;;;;21.45;47.12;101538.28;4998639;28;46468;-68
2023/06/28 00:05:57;;;;;;;;;4.33;4.33;;;;;21.56;46.79;101557.50;4997306;28;45918;-68
2023/06/28 00:08:22;;;;;;;;;3.33;3.33;;;;;21.49;47.30;101562.03;4980731;28;45417;-68
2023/06/28 00:10:51;;;;;;;;;3.33;3.33;;;;;21.38;47.36;101549.03;4998576;28;45560;-69
2023/06/28 00:13:17;;;;;;;;;4.67;4.00;;;;;21.10;47.68;101519.22;4997807;28;45544;-67
2023/06/28 00:15:42;;;;;;;;;5.67;5.00;;;;;21.25;47.88;101551.63;4998330;28;45444;-70
2023/06/28 00:18:08;;;;;;;;;2.33;2.33;;;;;21.21;47.75;101548.44;4998568;28;45328;-68
2023/06/28 00:20:34;;;;;;;;;4.67;4.67;;;;;21.11;47.59;101522.75;4998521;28;45584;-69
2023/06/28 00:23:00;;;;;;;;;5.67;3.33;;;;;21.23;47.46;101545.56;4997898;28;47769;-69
2023/06/28 00:25:25;;;;;;;;;6.00;4.67;;;;;21.17;47.50;101546.31;4998380;28;45438;-69
2023/06/28 00:27:51;;;;;;;;;3.67;3.00;;;;;21.23;47.60;101541.00;4998360;28;45603;-68
2023/06/28 00:30:17;;;;;;;;;5.00;4.00;;;;;21.20;47.54;101543.22;4998420;28;45275;-70
2023/06/28 00:32:42;;;;;;;;;6.00;4.00;;;;;21.26;47.42;101553.31;4996902;28;47682;-68
2023/06/28 00:35:07;;;;;;;;;5.00;3.33;;;;;21.17;47.39;101540.91;4980304;28;46349;-68
2023/06/28 00:37:33;;;;;;;;;3.33;3.33;;;;;21.17;47.78;101551.72;4980334;28;45320;-69
2023/06/28 00:40:05;;;;;;;;;7.00;4.00;;;;;21.14;47.85;101542.13;4998130;28;45341;-68
2023/06/28 00:42:30;;;;;;;;;4.00;4.00;;;;;21.09;48.04;101550.00;4998022;28;45603;-68
2023/06/28 00:44:56;;;;;;;;;7.00;4.00;;;;;21.10;47.90;101550.84;4998052;28;45410;-68
2023/06/28 00:47:22;;;;;;;;;4.33;4.33;;;;;21.10;47.84;101548.13;4998108;28;45363;-69
2023/06/28 00:49:50;;;;;;;;;5.00;5.00;;;;;20.92;47.82;101514.28;4998471;28;45445;-69
2023/06/28 00:52:16;;;;;;;;;5.00;4.00;;;;;21.07;48.18;101545.81;4997732;28;46776;-69
2023/06/28 00:54:41;;;;;;;;;3.00;3.00;;;;;20.68;47.93;101484.09;4979648;28;45501;-69
2023/06/28 00:57:07;;;;;;;;;5.33;4.00;;;;;20.87;48.26;101529.41;4997833;28;45254;-68
2023/06/28 00:59:35;;;;;;;;;5.00;4.00;;;;;20.76;48.36;101503.72;4998018;28;45255;-68
2023/06/28 01:02:01;;;;;;;;;3.67;3.67;;;;;20.97;48.06;101546.13;4997538;28;46394;-68
2023/06/28 01:04:26;;;;;;;;;4.67;3.67;;;;;20.93;48.47;101534.88;4997599;28;45334;-69
2023/06/28 01:06:54;;;;;;;;;3.00;3.00;;;;;20.91;48.31;101514.47;4997842;28;45413;-68
2023/06/28 01:09:26;;;;;;;;;3.00;3.00;;;;;20.57;48.21;101464.66;4997579;28;45644;-69
2023/06/28 01:11:53;;;;;;;;;6.67;3.33;;;;;21.01;48.16;101536.59;4997316;28;47224;-69
2023/06/28 01:14:19;;;;;;;;;4.33;4.33;;;;;21.04;48.30;101538.09;4997482;28;45326;-69
2023/06/28 01:16:49;;;;;;;;;4.00;3.00;;;;;20.70;48.06;101477.47;4979832;28;45521;-68
2023/06/28 01:19:15;;;;;;;;;2.67;2.67;;;;;21.05;47.67;101526.25;4997612;28;45544;-67
2023/06/28 01:21:45;;;;;;;;;5.67;4.33;;;;;21.13;47.67;101528.81;4997384;28;45744;-68
2023/06/28 01:24:11;;;;;;;;;4.33;4.33;;;;;21.21;47.73;101536.78;4996359;28;45357;-68
2023/06/28 01:26:40;;;;;;;;;5.33;5.33;;;;;21.15;47.64;101524.03;4995846;28;45469;-69
2023/06/28 01:29:06;;;;;;;;;4.67;4.67;;;;;20.90;47.80;101485.75;4997507;28;45513;-69
2023/06/28 01:31:32;;;;;;;;;8.00;7.00;;;;;21.19;47.67;101533.44;4997014;28;47723;-68
2023/06/28 01:33:58;;;;;;;;;8.33;7.67;;;;;21.16;47.53;101525.72;4997056;28;45259;-68
2023/06/28 01:36:23;;;;;;;;;7.67;6.33;;;;;20.60;47.53;101439.09;4997339;28;45362;-69
2023/06/28 01:38:50;;;;;;;;;9.67;8.33;;;;;21.20;47.35;101527.81;4995938;28;45601;-68
2023/06/28 01:41:17;;;;;;;;;9.00;8.00;;;;;20.99;47.41;101499.97;4996978;28;45651;-68
2023/06/28 01:43:42;;;;;;;;;12.00;9.67;;;;;21.30;47.34;101530.25;4997177;28;45305;-69
2023/06/28 01:46:08;;;;;;;;;11.33;8.00;;;;;21.30;47.33;101519.44;4997305;28;45353;-68
2023/06/28 01:48:34;;;;;;;;;8.33;6.00;;;;;21.19;47.79;101526.16;4997503;28;45357;-69
2023/06/28 01:51:00;;;;;;;;;13.67;11.00;;;;;21.13;47.68;101526.09;4996875;28;45622;-68
2023/06/28 01:53:26;;;;;;;;;8.67;8.67;;;;;21.06;47.34;101525.22;4996923;28;45912;-68
2023/06/28 01:55:51;;;;;;;;;9.33;7.67;;;;;21.08;47.57;101523.16;4996967;28;45279;-68
2023/06/28 01:58:17;;;;;;;;;9.00;8.33;;;;;21.05;47.74;101515.44;4997311;28;45390;-70
2023/06/28 02:00:42;;;;;;;;;7.00;6.00;;;;;21.04;47.69;101525.41;4996988;28;46266;-69
2023/06/28 02:03:07;;;;;;;;;10.00;9.67;;;;;21.10;47.27;101519.22;4996976;28;45266;-69
2023/06/28 02:05:33;;;;;;;;;5.67;5.67;;;;;21.13;47.06;101523.41;4979411;28;45453;-66
2023/06/28 02:07:58;;;;;;;;;5.33;5.33;;;;;21.18;46.86;101515.53;4996795;28;45287;-70
2023/06/28 02:10:24;;;;;;;;;6.33;6.33;;;;;21.24;46.50;101520.22;4996653;28;58414;-67
2023/06/28 02:12:50;;;;;;;;;13.00;12.33;;;;;21.24;46.47;101520.22;4996833;28;45373;-68
2023/06/28 02:15:15;;;;;;;;;13.00;11.67;;;;;21.16;46.28;101506.78;4996871;28;45375;-67
2023/06/28 02:17:41;;;;;;;;;9.00;9.00;;;;;21.29;46.42;101516.91;4997125;28;45233;-68
2023/06/28 02:20:09;;;;;;;;;13.00;11.67;;;;;21.32;46.10;101520.06;4996621;28;45410;-68
2023/06/28 02:22:34;;;;;;;;;10.00;8.00;;;;;21.31;46.36;101518.41;4996465;28;45254;-68
2023/06/28 02:25:00;;;;;;;;;13.67;10.67;;;;;21.29;46.17;101514.22;4995347;28;45901;-69
2023/06/28 02:27:25;;;;;;;;;11.67;11.67;;;;;20.92;46.29;101451.25;4997146;28;45330;-68
2023/06/28 02:29:51;;;;;;;;;11.33;8.33;;;;;21.29;45.66;101506.94;4996565;28;45633;-68
2023/06/28 02:32:16;;;;;;;;;10.00;8.67;;;;;21.35;45.52;101513.44;4996609;28;45436;-69
2023/06/28 02:34:42;;;;;;;;;9.00;8.33;;;;;21.34;45.13;101503.63;4995517;28;45486;-69
2023/06/28 02:37:07;;;;;;;;;9.67;8.67;;;;;21.34;45.37;101501.78;4999280;28;45484;-69
2023/06/28 02:39:33;;;;;;;;;13.67;10.67;;;;;21.37;45.32;101504.06;4999380;28;46317;-69
2023/06/28 02:41:58;;;;;;;;;8.00;8.00;;;;;21.29;45.56;101492.59;4999689;28;45375;-68
2023/06/28 02:44:23;;;;;;;;;10.33;9.00;;;;;21.20;45.42;101487.25;4999468;28;54867;-69
2023/06/28 02:46:48;;;;;;;;;9.67;9.00;;;;;21.31;45.32;101506.75;5000226;28;45324;-69
2023/06/28 02:49:14;;;;;;;;;11.67;10.67;;;;;21.29;45.61;101506.94;4981804;28;47470;-69
2023/06/28 02:51:39;;;;;;;;;5.33;5.33;;;;;21.23;45.39;101502.28;4999473;28;50415;-69
2023/06/28 02:54:04;;;;;;;;;5.00;5.00;;;;;21.18;45.36;101489.34;4999853;28;45338;-69
2023/06/28 02:56:30;;;;;;;;;6.33;5.33;;;;;21.26;45.40;101501.94;4999864;28;45354;-68
2023/06/28 02:58:55;;;;;;;;;9.67;6.00;;;;;21.24;45.68;101488.59;4999333;28;45773;-68
2023/06/28 03:01:20;;;;;;;;;6.33;4.00;;;;;21.25;45.72;101498.38;4999714;28;45547;-68
2023/06/28 03:03:47;;;;;;;;;5.67;5.67;;;;;21.26;45.80;101491.09;4999673;28;45160;-68
2023/06/28 03:06:13;;;;;;;;;10.00;6.33;;;;;21.21;45.53;101488.09;4999633;28;45492;-68
2023/06/28 03:08:38;;;;;;;;;6.00;4.00;;;;;21.14;45.71;101492.63;4999156;28;46216;-67
2023/06/28 03:11:04;;;;;;;;;5.33;5.33;;;;;21.09;45.62;101495.94;4999467;28;45173;-68
2023/06/28 03:13:29;;;;;;;;;3.00;3.00;;;;;21.12;45.95;101495.53;4999463;28;45393;-68
2023/06/28 03:15:54;;;;;;;;;3.67;3.00;;;;;21.08;46.04;101506.94;4999651;28;45217;-70
2023/06/28 03:18:20;;;;;;;;;4.00;4.00;;;;;21.00;46.13;101490.84;4981556;28;48749;-68
2023/06/28 03:20:45;;;;;;;;;8.00;5.67;;;;;20.97;46.39;101483.94;4999191;28;45497;-68
2023/06/28 03:23:10;;;;;;;;;8.00;5.33;;;;;21.03;46.49;101502.13;4998978;28;45272;-68
2023/06/28 03:25:36;;;;;;;;;5.67;5.67;;;;;20.96;46.81;101490.38;4999668;28;45581;-69
2023/06/28 03:28:02;;;;;;;;;4.67;3.00;;;;;21.04;46.49;101508.38;4997708;28;46784;-68
2023/06/28 03:30:27;;;;;;;;;6.33;5.00;;;;;21.08;46.64;101498.81;4999139;28;45500;-68
2023/06/28 03:32:52;;;;;;;;;4.00;4.00;;;;;21.08;46.53;101498.81;4981314;28;45428;-69
2023/06/28 03:35:18;;;;;;;;;7.00;5.33;;;;;21.08;46.39;101504.22;4998029;28;45326;-68
2023/06/28 03:37:53;;;;;;;;;5.33;5.33;;;;;21.02;46.49;101488.75;4998814;28;45644;-68
2023/06/28 03:40:19;;;;;;;;;7.67;6.67;;;;;21.06;46.70;101506.28;4997522;28;45452;-68
2023/06/28 03:42:44;;;;;;;;;6.00;5.00;;;;;20.90;46.54;101478.50;4998802;28;45721;-68
2023/06/28 03:45:10;;;;;;;;;5.67;4.67;;;;;21.06;46.96;101498.19;4999095;28;45327;-69
2023/06/28 03:47:35;;;;;;;;;5.33;4.33;;;;;21.08;46.50;101498.81;4997978;28;46950;-68
2023/06/28 03:50:01;;;;;;;;;7.67;7.00;;;;;21.07;46.40;101497.16;4997501;28;47719;-69
2023/06/28 03:52:27;;;;;;;;;7.00;4.67;;;;;20.38;46.82;101388.78;4998535;28;45500;-68
2023/06/28 03:54:53;;;;;;;;;5.33;4.67;;;;;20.96;46.72;101491.22;4998722;28;45234;-69
2023/06/28 03:57:21;;;;;;;;;5.00;3.33;;;;;20.89;46.83;101484.09;4998384;28;45982;-69
2023/06/28 03:59:46;;;;;;;;;5.67;5.67;;;;;20.49;46.80;101423.44;4981083;28;45316;-69
2023/06/28 04:02:12;;;;;;;;;7.00;4.33;;;;;20.84;47.22;101487.38;4998696;28;45315;-68
2023/06/28 04:04:37;;;;;;;;;11.33;7.00;;;;;20.88;47.47;101501.34;4998662;28;45481;-69
2023/06/28 04:07:02;;;;;;;;;10.67;8.67;;;;;20.42;47.52;101433.31;4980758;28;47689;-69
2023/06/28 04:09:28;;;;;;;;;10.33;8.00;;;;;20.83;47.39;101496.53;4998007;28;45381;-68
2023/06/28 04:11:53;;;;;;;;;9.00;9.00;;;;;20.77;47.62;101497.28;4998554;28;45294;-69
2023/06/28 04:14:18;;;;;;;;;13.67;10.00;;;;;20.81;47.38;101498.56;4998549;28;45320;-69
2023/06/28 04:16:44;;;;;;;;;9.33;8.00;;;;;20.78;47.45;101488.13;4998156;28;45346;-69
2023/06/28 04:19:09;;;;;;;;;9.00;4.33;;;;;20.50;47.30;101428.63;4998140;28;46266;-68
2023/06/28 04:21:34;;;;;;;;;5.00;4.33;;;;;20.77;47.10;101481.06;4998119;28;45295;-68
2023/06/28 04:24:00;;;;;;;;;5.67;4.00;;;;;20.83;47.56;101501.94;4996750;28;45528;-68
2023/06/28 04:26:26;;;;;;;;;7.33;6.00;;;;;20.81;47.59;101503.97;4998213;28;45589;-69
2023/06/28 04:28:51;;;;;;;;;8.67;6.33;;;;;20.65;47.49;101469.94;4998035;28;45551;-69
2023/06/28 04:31:16;;;;;;;;;5.67;4.33;;;;;20.82;47.37;101484.03;4998007;28;45305;-68
2023/06/28 04:33:42;;;;;;;;;7.33;6.00;;;;;20.63;46.96;101446.84;4980657;28;45244;-68
2023/06/28 04:36:07;;;;;;;;;6.00;5.00;;;;;21.00;46.75;101497.06;4997440;28;56875;-69
2023/06/28 04:38:32;;;;;;;;;3.33;3.33;;;;;21.01;46.10;101484.38;4979846;28;46053;-69
2023/06/28 04:41:00;;;;;;;;;3.33;3.33;;;;;21.15;46.26;101494.31;4997870;28;45223;-69
2023/06/28 04:43:26;;;;;;;;;6.00;4.00;;;;;21.09;45.75;101476.16;4998021;28;45232;-68
2023/06/28 04:45:55;;;;;;;;;6.67;6.33;;;;;21.31;45.57;101495.91;4996022;28;48471;-68
2023/06/28 04:48:21;;;;;;;;;3.67;3.67;;;;;21.30;45.54;101486.97;4997679;28;45375;-69
2023/06/28 04:50:47;;;;;;;;;2.00;2.00;;;;;21.36;43.72;101486.19;4996370;28;45508;-69
2023/06/28 04:53:12;;;;;;;;;3.00;3.00;;;;;21.41;44.17;101478.31;4996333;28;45576;-70
2023/06/28 04:55:38;;;;;;;;;5.00;2.33;;;;;21.52;43.23;101485.88;4997223;28;46027;-68
2023/06/28 04:58:05;;;;;;;;;6.67;3.33;;;;;21.60;43.29;101484.03;4997585;28;45276;-68
2023/06/28 05:00:32;;;;;;;;;5.67;5.33;;;;;21.61;42.64;101464.91;4997293;28;45413;-68
2023/06/28 05:03:00;;;;;;;;;3.67;3.67;;;;;21.79;42.35;101480.63;4997470;28;45369;-69
2023/06/28 05:05:29;;;;;;;;;5.00;5.00;;;;;21.96;42.40;101486.56;4997284;28;45572;-68
2023/06/28 05:07:55;;;;;;;;;6.00;6.00;;;;;21.74;42.08;101445.22;4995778;28;45306;-69
2023/06/28 05:10:22;;;;;;;;;5.33;5.33;;;;;22.11;41.86;101485.41;4997439;28;45266;-68
2023/06/28 05:12:50;;;;;;;;;7.00;5.00;;;;;22.24;42.05;101484.63;4995977;28;45507;-68
2023/06/28 05:15:15;;;;;;;;;8.00;7.00;;;;;22.35;41.51;101483.19;4997122;28;46556;-69
2023/06/28 05:17:41;;;;;;;;;10.00;6.67;;;;;22.19;41.81;101448.34;4979164;28;45458;-68
2023/06/28 05:20:07;;;;;;;;;6.00;5.00;;;;;22.18;41.02;101442.09;5000315;28;45434;-69
2023/06/28 05:22:32;;;;;;;;;5.00;5.00;;;;;22.20;41.43;101428.34;5008594;28;45733;-68
2023/06/28 05:24:57;;;;;;;;;6.00;5.00;;;;;22.52;41.17;101479.09;5012470;28;46923;-68
2023/06/28 05:27:23;;;;;;;;;6.00;5.33;;;;;22.55;41.86;101475.97;5002274;28;45291;-68
2023/06/28 05:29:48;;;;;;;;;6.00;4.00;;;;;22.62;41.57;101468.66;4997369;28;45224;-70
2023/06/28 05:32:16;;;;;;;;;6.00;5.00;;;;;22.72;41.74;101471.84;5004597;28;45311;-68
2023/06/28 05:34:41;;;;;;;;;5.67;5.67;;;;;22.79;41.30;101469.13;4990104;28;48121;-69
2023/06/28 05:37:07;;;;;;;;;8.00;7.00;;;;;22.72;41.43;101455.56;5016460;28;45231;-69
2023/06/28 05:39:32;;;;;;;;;7.00;7.00;;;;;22.91;41.68;101477.53;5016405;28;45316;-68
2023/06/28 05:41:57;;;;;;;;;6.00;5.67;;;;;22.92;41.42;101462.91;5016779;28;45350;-69
2023/06/28 05:44:23;;;;;;;;;4.00;4.00;;;;;22.65;41.92;101410.53;5006499;28;53340;-69
2023/06/28 05:46:49;;;;;;;;;7.67;6.33;;;;;23.06;41.87;101464.59;4996920;28;45505;-68
2023/06/28 05:49:14;;;;;;;;;7.00;6.00;;;;;23.16;41.95;101459.56;5014237;28;45322;-68
2023/06/28 05:51:39;;;;;;;;;11.00;6.33;;;;;23.38;41.58;101477.28;5015586;28;45365;-69
2023/06/28 05:54:05;;;;;;;;;7.00;7.00;;;;;23.75;40.94;101465.97;4999434;28;46238;-69
2023/06/28 05:56:30;;;;;;;;;7.00;6.00;;;;;24.11;40.50;101468.16;4996405;28;45428;-69
2023/06/28 05:58:56;;;;;;;;;6.67;6.67;;;;;24.48;40.18;101480.97;4996725;28;45400;-68
2023/06/28 06:01:25;;;;;;;;;4.00;4.00;;;;;24.62;39.69;101467.28;4996772;28;45273;-69
2023/06/28 06:03:50;;;;;;;;;4.00;4.00;;;;;24.79;39.59;101462.97;4996461;28;46610;-68
2023/06/28 06:06:17;;;;;;;;;6.00;4.67;;;;;25.22;38.97;101470.41;4996701;28;45493;-68
2023/06/28 06:08:42;;;;;;;;;4.67;3.67;;;;;25.70;38.53;101465.97;4997402;28;45460;-70
2023/06/28 06:11:08;;;;;;;;;4.67;3.33;;;;;26.14;37.43;101458.53;5017410;28;45528;-70
2023/06/28 06:13:33;;;;;;;;;4.00;4.00;;;;;26.57;36.79;101455.66;5019941;28;46703;-70
2023/06/28 06:15:59;;;;;;;;;4.00;4.00;;;;;27.04;35.82;101463.16;5012575;28;45696;-69
2023/06/28 06:18:24;;;;;;;;;3.67;2.33;;;;;27.49;35.20;101469.69;5008952;28;45475;-70
2023/06/28 06:20:50;;;;;;;;;3.00;3.00;;;;;27.84;34.56;101463.38;5016021;28;45549;-70
2023/06/28 06:23:19;;;;;;;;;4.33;4.33;;;;;27.97;34.12;101416.63;5017879;28;45962;-72
2023/06/28 06:25:44;;;;;;;;;3.33;3.00;;;;;28.61;33.29;101466.53;5019735;28;45477;-69
2023/06/28 06:28:10;;;;;;;;;4.33;4.33;;;;;28.94;32.75;101462.22;5019536;28;45271;-70
2023/06/28 06:30:36;;;;;;;;;3.33;2.33;;;;;29.23;32.35;101469.25;5019779;28;45562;-70
2023/06/28 06:33:01;;;;;;;;;3.00;3.00;;;;;29.29;32.41;101418.97;5019457;28;46634;-71
2023/06/28 06:35:27;;;;;;;;;5.00;5.00;;;;;29.97;31.48;101461.53;5018848;28;45395;-70
2023/06/28 06:37:53;;;;;;;;;5.00;4.00;;;;;30.39;30.69;101465.59;5017772;28;45430;-72
2023/06/28 06:40:19;;;;;;;;;3.33;3.33;;;;;30.74;30.72;101468.75;5001661;28;45510;-68
2023/06/28 06:42:45;;;;;;;;;3.00;3.00;;;;;30.97;30.17;101464.81;5019281;28;46044;-70
2023/06/28 06:45:16;;;;;;;;;5.00;4.33;;;;;31.15;29.17;101472.66;5019301;28;45250;-69
2023/06/28 06:47:46;;;;;;;;;4.00;4.00;;;;;31.44;28.76;101472.34;5019521;28;45325;-69
2023/06/28 06:50:13;;;;;;;;;5.00;4.67;;;;;31.56;28.84;101470.19;4987137;28;45331;-72
2023/06/28 06:52:39;;;;;;;;;5.00;4.33;;;;;31.22;28.66;101414.75;4999117;28;46450;-70
2023/06/28 06:55:05;;;;;;;;;8.00;6.00;;;;;31.21;29.66;101472.72;4981453;28;45440;-68
2023/06/28 06:57:30;;;;;;;;;6.00;3.33;;;;;30.70;29.36;101470.34;4985534;28;45314;-70
2023/06/28 06:59:55;;;;;;;;;9.33;6.00;;;;;30.15;30.09;101476.06;5017153;28;45509;-69
2023/06/28 07:02:21;;;;;;;;;5.67;5.00;;;;;29.54;31.00;101486.19;5016266;28;45922;-68
2023/06/28 07:04:47;;;;;;;;;4.33;4.33;;;;;29.20;31.95;101491.66;4994666;28;45515;-70
2023/06/28 07:07:12;;;;;;;;;5.00;4.00;;;;;29.02;32.20;101489.19;5006738;28;45496;-68
2023/06/28 07:09:38;;;;;;;;;4.33;4.33;;;;;28.49;32.48;101443.91;5018471;28;45425;-70
2023/06/28 07:12:03;;;;;;;;;8.00;7.00;;;;;28.31;32.82;101476.94;5018305;28;46103;-69
2023/06/28 07:14:29;;;;;;;;;5.00;5.00;;;;;28.06;33.73;101475.31;5018702;28;45505;-70
2023/06/28 07:16:54;;;;;;;;;5.33;4.00;;;;;28.03;34.49;101481.28;5017859;28;57468;-70
2023/06/28 07:19:20;;;;;;;;;5.00;4.00;;;;;27.98;34.60;101478.41;5017441;28;45532;-72
2023/06/28 07:21:45;;;;;;;;;6.67;5.00;;;;;27.95;34.03;101480.81;5018198;28;46424;-69
2023/06/28 07:24:10;;;;;;;;;6.00;5.00;;;;;27.74;34.38;101482.28;5005616;28;45512;-70
2023/06/28 07:26:36;;;;;;;;;6.67;5.33;;;;;27.64;34.48;101477.44;5006755;28;45464;-72
2023/06/28 07:29:02;;;;;;;;;4.33;4.33;;;;;27.34;34.91;101493.91;5018748;28;45614;-69
2023/06/28 07:31:27;;;;;;;;;6.00;5.00;;;;;26.65;36.12;101446.31;5018044;28;46258;-69
2023/06/28 07:33:52;;;;;;;;;3.00;3.00;;;;;26.66;36.48;101486.16;5018622;28;45261;-71
2023/06/28 07:36:18;;;;;;;;;9.33;9.00;;;;;26.59;37.65;101472.59;5017781;28;45493;-70
2023/06/28 07:38:43;;;;;;;;;5.67;4.33;;;;;26.81;37.47;101494.72;5013057;28;45569;-69
2023/06/28 07:41:08;;;;;;;;;5.67;5.00;;;;;26.76;36.77;101470.06;5000167;28;46813;-69
2023/06/28 07:43:34;;;;;;;;;4.00;4.00;;;;;26.83;36.48;101484.44;5017499;28;45425;-70
2023/06/28 07:46:00;;;;;;;;;5.67;5.67;;;;;26.83;36.65;101489.91;5001642;28;45556;-70
2023/06/28 07:48:26;;;;;;;;;8.00;4.00;;;;;26.76;36.64;101502.78;5000203;28;45625;-71
2023/06/28 07:50:51;;;;;;;;;8.33;8.33;;;;;26.58;37.02;101464.66;4999889;28;46705;-71
2023/06/28 07:53:17;;;;;;;;;5.33;5.33;;;;;26.64;36.51;101450.13;5017663;28;45497;-70
2023/06/28 07:55:42;;;;;;;;;7.33;6.00;;;;;26.88;36.81;101483.72;4987492;28;45556;-70
2023/06/28 07:58:08;;;;;;;;;6.00;5.33;;;;;26.92;36.77;101477.56;5015602;28;45313;-69
2023/06/28 08:00:33;;;;;;;;;6.00;5.00;;;;;27.02;36.34;101474.28;4998536;28;48732;-72
2023/06/28 08:02:59;;;;;;;;;4.33;4.33;;;;;27.03;36.26;101477.84;4997272;28;45389;-69
2023/06/28 08:05:25;;;;;;;;;5.67;5.00;;;;;26.84;36.66;101458.81;5015427;28;45299;-70
2023/06/28 08:07:53;;;;;;;;;5.67;5.67;;;;;26.85;37.29;101471.41;5014960;28;45475;-71
2023/06/28 08:10:19;;;;;;;;;9.00;8.00;;;;;26.91;36.74;101473.19;4994452;28;47527;-71
2023/06/28 08:12:44;;;;;;;;;8.00;7.00;;;;;26.95;36.63;101476.25;5026862;28;45567;-70
2023/06/28 08:15:09;;;;;;;;;11.00;10.00;;;;;26.92;36.96;101472.13;5011355;28;45507;-70
2023/06/28 08:17:35;;;;;;;;;6.67;4.00;;;;;27.01;37.02;101472.63;5011251;28;46110;-71
2023/06/28 08:20:00;;;;;;;;;7.00;6.00;;;;;26.87;36.54;101433.78;5010152;28;45563;-69
2023/06/28 08:22:26;;;;;;;;;8.67;8.00;;;;;27.23;36.19;101476.47;5015690;28;45615;-70
2023/06/28 08:24:51;;;;;;;;;6.00;6.00;;;;;27.29;36.04;101480.13;5006307;28;45737;-73
2023/06/28 08:27:16;;;;;;;;;6.00;5.33;;;;;27.32;36.10;101459.72;4991688;28;45603;-70
2023/06/28 08:29:41;;;;;;;;;5.67;5.67;;;;;27.50;37.19;101465.06;4995680;28;47701;-70
2023/06/28 08:32:07;;;;;;;;;8.33;8.33;;;;;27.64;36.21;101465.69;5016189;28;45266;-71
2023/06/28 08:34:33;;;;;;;;;6.00;6.00;;;;;27.65;35.61;101464.59;5013224;28;45528;-70
2023/06/28 08:36:58;;;;;;;;;5.33;4.00;;;;;27.65;35.87;101448.22;5014803;28;45566;-71
2023/06/28 08:39:24;;;;;;;;;5.00;5.00;;;;;27.36;35.61;101393.47;4999275;28;46598;-69
2023/06/28 08:41:52;;;;;;;;;7.67;7.67;;;;;27.81;35.17;101456.47;5017142;28;45417;-71
2023/06/28 08:44:20;;;;;;;;;5.67;5.67;;;;;27.83;35.04;101442.56;5017476;28;45340;-70
2023/06/28 08:46:48;;;;;;;;;8.33;6.00;;;;;27.94;35.32;101441.72;5013449;28;45504;-69
2023/06/28 08:49:15;;;;;;;;;6.67;6.67;;;;;27.91;34.78;101442.22;5016149;28;45407;-72
2023/06/28 08:51:41;;;;;;;;;7.00;5.67;;;;;27.88;35.34;101434.50;4998513;28;45552;-71
2023/06/28 08:54:09;;;;;;;;;8.33;8.00;;;;;27.88;35.05;101439.97;5012082;28;45566;-69
2023/06/28 08:56:35;;;;;;;;;6.00;6.00;;;;;27.87;35.23;101439.13;5013999;28;45433;-71
2023/06/28 08:59:01;;;;;;;;;6.00;6.00;;;;;28.01;35.19;101450.59;5016321;28;46286;-69
2023/06/28 09:01:27;;;;;;;;;9.00;7.33;;;;;27.81;35.12;101441.97;4999199;28;45787;-68
2023/06/28 09:03:54;;;;;;;;;6.00;6.00;;;;;27.91;35.32;101455.88;5016930;28;45491;-69
2023/06/28 09:06:21;;;;;;;;;6.33;4.67;;;;;27.99;36.91;101441.81;5002028;28;45441;-70
2023/06/28 09:08:48;;;;;;;;;4.67;4.67;;;;;28.03;36.65;101453.94;4978990;28;48899;-68
2023/06/28 09:11:16;;;;;;;;;8.00;6.00;;;;;27.99;35.92;101449.19;4997396;28;45579;-69
2023/06/28 09:13:43;;;;;;;;;11.33;6.67;;;;;27.88;35.68;101448.16;5015918;28;45457;-67
2023/06/28 09:16:09;;;;;;;;;8.00;7.00;;;;;27.72;34.92;101443.44;4997754;28;45336;-70
2023/06/28 09:18:35;;;;;;;;;12.33;8.33;;;;;27.71;34.83;101436.31;5011995;28;47430;-68
2023/06/28 09:21:01;;;;;;;;;8.33;7.00;;;;;27.72;34.15;101440.72;5016444;28;45439;-68
2023/06/28 09:23:31;;;;;;;;;6.00;6.00;;;;;27.83;35.18;101450.75;5014011;28;45276;-69
2023/06/28 09:25:56;;;;;;;;;7.33;7.33;;;;;27.88;34.70;101450.91;5016737;28;45462;-69
2023/06/28 09:28:23;;;;;;;;;11.67;8.33;;;;;27.85;34.96;101435.81;5013635;28;48098;-71
2023/06/28 09:30:56;;;;;;;;;9.33;7.00;;;;;27.52;35.19;101386.44;5017225;28;45452;-72
2023/06/28 09:33:22;;;;;;;;;9.67;9.67;;;;;27.88;34.57;101440.78;5006997;28;45477;-72
2023/06/28 09:35:57;;;;;;;;;9.00;8.00;;;;;27.75;34.76;101441.06;5010749;28;45195;-70
2023/06/28 09:38:23;;;;;;;;;8.00;7.00;;;;;27.70;35.11;101421.00;5016096;28;46996;-71
2023/06/28 09:41:01;;;;;;;;;8.67;7.33;;;;;27.73;34.92;101423.25;5010418;28;46014;-71
2023/06/28 09:43:34;;;;;;;;;9.00;7.67;;;;;27.83;35.09;101437.09;5013975;28;45421;-70
2023/06/28 09:46:14;;;;;;;;;10.33;8.67;;;;;27.85;35.02;101435.81;5011495;28;45455;-70
2023/06/28 09:48:44;;;;;;;;;8.00;7.33;;;;;27.81;35.61;101422.84;5016857;28;45715;-68
2023/06/28 09:51:11;;;;;;;;;12.33;11.00;;;;;27.93;34.96;101426.38;5005752;28;46478;-69
2023/06/28 09:53:50;;;;;;;;;6.33;5.67;;;;;27.77;35.52;101413.47;5015902;28;45414;-69
2023/06/28 09:56:35;;;;;;;;;7.67;7.67;;;;;27.79;34.87;101414.06;5009727;28;45521;-68
2023/06/28 09:59:06;;;;;;;;;10.00;10.00;;;;;27.83;35.16;101415.25;5018109;28;45789;-73
2023/06/28 10:01:33;;;;;;;;;11.00;10.00;;;;;27.78;35.06;101417.88;5001539;28;45445;-70
2023/06/28 10:03:59;;;;;;;;;13.00;13.00;;;;;27.54;35.23;101376.94;4999028;28;45472;-69
2023/06/28 10:06:27;;;;;;;;;13.00;12.00;;;;;27.57;35.51;101375.59;5020119;28;45459;-69
2023/06/28 10:08:53;;;;;;;;;10.67;9.67;;;;;27.85;35.25;101410.38;5015061;28;46834;-75
2023/06/28 10:11:21;;;;;;;;;13.67;13.67;;;;;27.88;35.11;101407.16;5019163;28;45309;-69
2023/06/28 10:13:48;;;;;;;;;11.67;10.00;;;;;27.31;35.19;101297.78;5018223;28;45431;-69
2023/06/28 10:16:21;;;;;;;;;13.67;12.67;;;;;27.97;34.95;101408.44;5014523;28;45542;-69
2023/06/28 10:18:47;;;;;;;;;16.00;13.00;;;;;27.97;35.69;101405.69;5013292;28;45389;-69
2023/06/28 10:21:13;;;;;;;;;12.00;12.00;;;;;27.82;35.41;101375.31;5014799;28;45625;-69
2023/06/28 10:23:40;;;;;;;;;14.33;13.33;;;;;27.99;34.70;101391.78;5014442;28;45519;-70
2023/06/28 10:26:07;;;;;;;;;18.33;15.33;;;;;27.84;34.96;101356.81;5019382;28;45503;-71
2023/06/28 10:28:34;;;;;;;;;19.33;17.00;;;;;28.09;35.18;101392.81;5019102;28;45473;-69
2023/06/28 10:31:02;;;;;;;;;13.67;13.67;;;;;27.87;35.15;101348.13;5001155;28;45595;-70
2023/06/28 10:33:32;;;;;;;;;11.33;11.33;;;;;27.95;35.18;101371.47;5011654;28;45449;-70
2023/06/28 10:36:02;;;;;;;;;13.33;12.67;;;;;28.15;35.13;101402.78;5022474;28;45541;-69
2023/06/28 10:38:31;;;;;;;;;12.67;12.67;;;;;28.11;34.92;101398.03;5018486;28;46229;-69
2023/06/28 10:40:57;;;;;;;;;13.33;13.33;;;;;27.77;34.62;101350.63;5018888;28;45243;-68
2023/06/28 10:43:23;;;;;;;;;15.33;11.33;;;;;27.96;34.77;101393.09;5001277;28;45365;-70
2023/06/28 10:45:52;;;;;;;;;16.67;11.00;;;;;27.75;35.38;101370.00;5001313;28;45567;-70
2023/06/28 10:48:20;;;;;;;;;13.00;13.00;;;;;26.91;35.11;101243.97;5011317;28;46616;-70
2023/06/28 10:50:47;;;;;;;;;16.67;13.67;;;;;27.75;35.27;101380.09;5015974;28;45148;-70
2023/06/28 10:53:25;;;;;;;;;18.33;15.33;;;;;27.82;35.78;101391.72;5018750;28;45361;-70
2023/06/28 10:56:07;;;;;;;;;13.67;13.67;;;;;27.86;35.77;101392.91;5034424;28;45437;-70
2023/06/28 10:58:43;;;;;;;;;18.67;14.67;;;;;27.83;35.42;101386.03;5017154;28;48857;-70
2023/06/28 11:01:10;;;;;;;;;16.33;16.00;;;;;27.58;35.54;101342.59;5031501;28;45468;-71
2023/06/28 11:03:42;;;;;;;;;15.67;13.67;;;;;27.86;35.58;101387.44;5019867;28;45676;-69
2023/06/28 11:06:10;;;;;;;;;19.33;16.67;;;;;26.94;35.66;101237.19;5004510;28;45496;-70
2023/06/28 11:08:37;;;;;;;;;17.33;14.00;;;;;27.86;35.53;101382.00;5010605;28;45730;-70
2023/06/28 11:11:02;;;;;;;;;17.67;14.33;;;;;27.71;35.78;101379.78;5001026;28;46573;-72
2023/06/28 11:13:44;;;;;;;;;18.33;15.67;;;;;27.47;36.02;101350.84;5018907;28;45503;-70
2023/06/28 11:16:16;;;;;;;;;13.67;13.33;;;;;27.43;36.04;101350.50;5001011;28;45330;-69
2023/06/28 11:18:41;;;;;;;;;16.00;13.00;;;;;27.50;36.33;101361.28;4999710;28;48314;-70